Terminal Aerodrome Forecast
Issued by NWS Twin Cities, MN

Home | Current Version | Previous Version | Graphics & Text | Print | Product List | Glossary On
Versions: 1 2 3 4 5 6 7 8 9 10 11 12 13 14 15 16 17
073
FTUS43 KMPX 221359 AAA
TAFSTC
TAF AMD
KSTC 221359Z 2214/2312 15010KT P6SM -SHRA VCTS SCT025CB OVC035
      WS020/20040KT
      TEMPO 2214/2215 5SM -SHRA BR BKN025 OVC035
     FM221500 18017G24KT P6SM SCT150
     FM230000 17012KT P6SM SCT150
     FM230200 18013KT P6SM FEW250 WS020/19045KT
     FM230700 20011KT P6SM SCT200=

USA.gov is the U.S. government's official web portal to all federal, state and local government web resources and services.